Time;durP1;ratioP1;P1;durP2;ratioP2;P2;SDS_P1;SDS_P2;PMS_P1;PMS_P2;Temp;Humidity;BMP_temperature;BMP_pressure;BME280_temperature;BME280_humidity;BME280_pressure;Samples;Min_cycle;Max_cycle;Signal;HPM_P1;HPM_P2
2023/03/13 00:00:28;;;;;;;0.50;0.50;;;;;;;6.58;78.46;96420.53;29395;206;63005;-60
2023/03/13 00:01:00;;;;;;;0.50;0.50;;;;;;;6.59;78.34;96416.72;29395;198;63009;-61
2023/03/13 00:01:35;;;;;;;0.60;0.60;;;;;;;6.60;78.35;96418.31;29394;218;64009;-73
2023/03/13 00:02:06;;;;;;;0.50;0.50;;;;;;;6.61;78.42;96421.84;29395;199;63009;-61
2023/03/13 00:02:40;;;;;;;0.50;0.50;;;;;;;6.60;78.19;96420.22;29395;282;63007;-59
2023/03/13 00:03:11;;;;;;;0.50;0.50;;;;;;;6.61;78.32;96424.53;29395;227;63009;-62
2023/03/13 00:03:44;;;;;;;0.50;0.50;;;;;;;6.58;78.05;96417.84;29395;219;63004;-60
2023/03/13 00:04:15;;;;;;;0.60;0.60;;;;;;;6.62;77.97;96418.84;29394;276;64013;-61
2023/03/13 00:04:47;;;;;;;0.50;0.50;;;;;;;6.66;78.23;96416.41;29395;229;63008;-60
2023/03/13 00:05:19;;;;;;;0.50;0.50;;;;;;;6.67;77.87;96418.03;29394;197;64014;-69
2023/03/13 00:05:56;;;;;;;0.60;0.60;;;;;;;6.66;77.96;96414.53;29395;275;63005;-61
2023/03/13 00:06:35;;;;;;;0.60;0.60;;;;;;;6.65;78.12;96420.19;29395;222;63009;-61
2023/03/13 00:07:06;;;;;;;0.60;0.60;;;;;;;6.63;78.11;96416.97;29395;208;63005;-68
2023/03/13 00:07:40;;;;;;;0.50;0.50;;;;;;;6.62;77.99;96421.56;29395;264;63009;-60
2023/03/13 00:08:12;;;;;;;0.50;0.50;;;;;;;6.63;78.10;96419.66;29395;207;63005;-61
2023/03/13 00:08:47;;;;;;;0.50;0.50;;;;;;;6.64;78.29;96418.59;29394;235;64013;-60
2023/03/13 00:09:19;;;;;;;0.50;0.50;;;;;;;6.65;77.85;96415.59;29394;202;64009;-61
2023/03/13 00:09:50;;;;;;;0.50;0.50;;;;;;;6.67;77.77;96407.25;29395;206;63009;-60
2023/03/13 00:10:21;;;;;;;0.50;0.50;;;;;;;6.66;78.01;96414.53;29395;211;63004;-61
2023/03/13 00:10:52;;;;;;;0.50;0.50;;;;;;;6.67;77.92;96418.03;29395;275;63009;-61
2023/03/13 00:11:27;;;;;;;0.50;0.50;;;;;;;6.65;77.85;96415.59;29395;311;63004;-72
2023/03/13 00:11:58;;;;;;;0.50;0.50;;;;;;;6.64;78.14;96415.88;29394;264;64013;-63
2023/03/13 00:12:30;;;;;;;0.50;0.50;;;;;;;6.64;77.95;96415.88;29395;232;63005;-60
2023/03/13 00:13:01;;;;;;;0.50;0.50;;;;;;;6.63;78.15;96417.78;29395;262;63009;-61
2023/03/13 00:13:34;;;;;;;0.52;0.52;;;;;;;6.62;78.06;96410.78;29395;278;63005;-60
2023/03/13 00:14:07;;;;;;;0.50;0.50;;;;;;;6.62;78.23;96421.56;29394;198;64014;-60
2023/03/13 00:14:39;;;;;;;0.50;0.50;;;;;;;6.62;78.44;96416.16;29395;215;63005;-61
2023/03/13 00:15:10;;;;;;;0.50;0.50;;;;;;;6.62;78.21;96410.78;29395;199;63009;-70
2023/03/13 00:15:42;;;;;;;0.50;0.50;;;;;;;6.61;78.18;96411.84;29395;202;63005;-61
2023/03/13 00:16:15;;;;;;;0.50;0.50;;;;;;;6.63;78.19;96412.38;29395;258;63017;-62
2023/03/13 00:16:46;;;;;;;0.50;0.50;;;;;;;6.63;78.49;96411.56;29395;214;63004;-62
2023/03/13 00:17:18;;;;;;;0.50;0.50;;;;;;;6.62;78.16;96416.16;29395;219;63009;-63
2023/03/13 00:17:50;;;;;;;0.50;0.50;;;;;;;6.63;78.50;96414.28;29395;263;63004;-60
2023/03/13 00:18:21;;;;;;;0.50;0.50;;;;;;;6.64;78.38;96410.50;29395;253;63008;-68
2023/03/13 00:18:58;;;;;;;0.60;0.60;;;;;;;6.63;78.15;96412.38;29395;261;63004;-60
2023/03/13 00:19:30;;;;;;;0.50;0.50;;;;;;;6.62;78.57;96416.16;29394;293;64014;-69
2023/03/13 00:20:03;;;;;;;0.50;0.50;;;;;;;6.61;78.26;96402.97;29395;228;63005;-62
2023/03/13 00:20:35;;;;;;;0.50;0.50;;;;;;;6.60;78.41;96415.62;29395;210;63009;-69
2023/03/13 00:21:08;;;;;;;0.82;0.82;;;;;;;6.60;78.56;96414.81;29395;202;63005;-61
2023/03/13 00:21:40;;;;;;;0.55;0.55;;;;;;;6.59;78.50;96416.72;29395;203;63009;-61
2023/03/13 00:22:11;;;;;;;0.50;0.50;;;;;;;6.59;78.49;96414.03;29394;204;64009;-61
2023/03/13 00:22:44;;;;;;;0.50;0.50;;;;;;;6.59;78.74;96411.31;29395;203;63009;-62
2023/03/13 00:23:15;;;;;;;0.50;0.50;;;;;;;6.58;78.57;96415.12;29395;232;63005;-61
2023/03/13 00:23:47;;;;;;;0.50;0.50;;;;;;;6.58;78.80;96407.03;29394;222;64013;-61
2023/03/13 00:24:18;;;;;;;0.50;0.50;;;;;;;6.57;78.81;96413.53;29395;208;63011;-60
2023/03/13 00:24:50;;;;;;;0.60;0.60;;;;;;;6.57;78.62;96405.44;29395;257;63009;-62
2023/03/13 00:25:21;;;;;;;0.50;0.50;;;;;;;6.57;78.56;96408.12;29395;199;63004;-61
2023/03/13 00:26:00;;;;;;;0.52;0.52;;;;;;;6.57;78.75;96408.12;29395;310;63007;-61
2023/03/13 00:26:31;;;;;;;0.50;0.50;;;;;;;6.57;78.87;96416.22;29395;234;63004;-71
2023/03/13 00:27:04;;;;;;;0.50;0.50;;;;;;;6.56;79.04;96414.59;29395;274;63009;-61
2023/03/13 00:27:35;;;;;;;0.50;0.50;;;;;;;6.56;78.94;96409.22;29395;232;63005;-71
2023/03/13 00:28:13;;;;;;;0.50;0.50;;;;;;;6.56;78.81;96406.53;29395;209;63009;-61
2023/03/13 00:28:45;;;;;;;0.50;0.50;;;;;;;6.57;78.92;96416.22;29395;198;63009;-62
2023/03/13 00:29:16;;;;;;;0.50;0.50;;;;;;;6.55;79.02;96404.09;29394;223;64013;-61
2023/03/13 00:29:49;;;;;;;0.50;0.50;;;;;;;6.55;78.87;96409.50;29394;276;64009;-71
2023/03/13 00:30:21;;;;;;;0.50;0.50;;;;;;;6.54;78.91;96408.69;29395;245;63009;-60
2023/03/13 00:31:12;;;;;;;0.50;0.50;;;;;;;6.54;78.98;96413.28;29395;244;63005;-61
2023/03/13 00:31:44;;;;;;;0.60;0.60;;;;;;;6.53;78.87;96411.66;29417;199;63009;-72
2023/03/13 00:32:15;;;;;;;0.50;0.50;;;;;;;6.52;79.17;96408.16;29394;197;64009;-61
2023/03/13 00:32:47;;;;;;;0.50;0.50;;;;;;;6.51;79.21;96411.94;29395;256;63009;-61
2023/03/13 00:33:18;;;;;;;0.50;0.50;;;;;;;6.52;79.22;96408.16;29395;203;63004;-61
2023/03/13 00:33:53;;;;;;;0.50;0.50;;;;;;;6.52;79.23;96410.84;29395;202;63008;-61
2023/03/13 00:34:27;;;;;;;0.50;0.50;;;;;;;6.52;79.17;96405.47;29395;269;63005;-68
2023/03/13 00:34:58;;;;;;;0.57;0.57;;;;;;;6.52;79.15;96410.84;29395;212;63009;-60
2023/03/13 00:35:29;;;;;;;0.50;0.50;;;;;;;6.53;79.28;96408.97;29395;227;63005;-60
2023/03/13 00:36:02;;;;;;;0.50;0.50;;;;;;;6.54;79.08;96402.50;29394;230;64013;-61
2023/03/13 00:36:35;;;;;;;0.50;0.50;;;;;;;6.54;79.04;96406.00;29394;251;64009;-61
2023/03/13 00:37:06;;;;;;;0.60;0.60;;;;;;;6.55;79.01;96404.91;29395;237;63009;-61
2023/03/13 00:37:38;;;;;;;0.50;0.50;;;;;;;6.56;79.01;96406.53;29395;242;63005;-62
2023/03/13 00:38:10;;;;;;;0.50;0.50;;;;;;;6.57;78.94;96402.75;29395;285;63009;-61
2023/03/13 00:38:41;;;;;;;0.50;0.50;;;;;;;6.59;78.89;96397.84;29395;203;63014;-61
2023/03/13 00:39:14;;;;;;;0.50;0.50;;;;;;;6.60;78.77;96407.53;29395;281;63009;-61
2023/03/13 00:39:49;;;;;;;0.50;0.50;;;;;;;6.63;78.96;96406.19;29394;245;64009;-62
2023/03/13 00:40:21;;;;;;;0.50;0.50;;;;;;;6.63;78.61;96407.00;29394;213;64013;-69
2023/03/13 00:41:06;;;;;;;0.50;0.50;;;;;;;6.64;78.61;96402.41;29395;218;63004;-61
2023/03/13 00:41:37;;;;;;;0.50;0.50;;;;;;;6.65;78.50;96399.44;29395;214;63008;-63
2023/03/13 00:42:08;;;;;;;0.50;0.50;;;;;;;6.69;78.62;96405.06;29395;219;63005;-61
2023/03/13 00:42:40;;;;;;;0.50;0.50;;;;;;;6.70;78.61;96402.09;29395;216;63009;-62
2023/03/13 00:43:12;;;;;;;0.50;0.50;;;;;;;6.71;78.33;96402.91;29395;197;63005;-60
2023/03/13 00:43:44;;;;;;;0.50;0.50;;;;;;;6.72;78.47;96399.94;29395;240;63009;-62
2023/03/13 00:44:15;;;;;;;0.50;0.50;;;;;;;6.78;77.83;96405.28;29394;240;64009;-61
2023/03/13 00:44:46;;;;;;;0.50;0.50;;;;;;;6.79;77.88;96404.22;29394;243;64013;-60
2023/03/13 00:45:18;;;;;;;0.50;0.50;;;;;;;6.80;77.67;96405.81;29395;300;63005;-60
2023/03/13 00:45:49;;;;;;;0.50;0.50;;;;;;;6.80;77.69;96395.84;29395;215;63009;-71
2023/03/13 00:46:23;;;;;;;0.60;0.60;;;;;;;6.82;77.87;96398.25;29395;213;63004;-62
2023/03/13 00:46:55;;;;;;;0.50;0.50;;;;;;;6.86;77.53;96405.50;29395;308;63009;-62
2023/03/13 00:47:27;;;;;;;0.50;0.50;;;;;;;6.87;77.31;96393.63;29395;199;63013;-60
2023/03/13 00:48:01;;;;;;;0.50;0.50;;;;;;;6.87;77.58;96395.53;29395;204;63009;-61
2023/03/13 00:48:33;;;;;;;0.50;0.50;;;;;;;6.87;77.61;96392.84;29395;311;63004;-60
2023/03/13 00:49:05;;;;;;;0.50;0.50;;;;;;;6.85;77.39;96389.59;29395;249;63008;-70
2023/03/13 00:49:36;;;;;;;0.52;0.52;;;;;;;6.83;77.78;96389.09;29395;275;63005;-60
2023/03/13 00:50:09;;;;;;;0.50;0.50;;;;;;;6.83;77.50;96394.47;29394;235;64014;-61
2023/03/13 00:50:40;;;;;;;0.50;0.50;;;;;;;6.82;77.70;96392.88;29395;272;63005;-61
2023/03/13 00:51:13;;;;;;;0.60;0.60;;;;;;;6.81;77.60;96389.38;29395;236;63015;-61
2023/03/13 00:51:46;;;;;;;0.50;0.50;;;;;;;6.82;77.59;96388.28;29395;202;63005;-69
2023/03/13 00:52:18;;;;;;;0.50;0.50;;;;;;;6.82;77.57;96388.28;29395;213;63009;-60
2023/03/13 00:52:49;;;;;;;0.50;0.50;;;;;;;6.84;77.72;96390.69;29395;196;63010;-62
2023/03/13 00:53:21;;;;;;;0.50;0.50;;;;;;;6.89;77.29;96387.97;29395;196;63009;-61
2023/03/13 00:53:53;;;;;;;0.50;0.50;;;;;;;6.94;77.10;96385.19;29395;270;63009;-62
2023/03/13 00:54:24;;;;;;;0.55;0.55;;;;;;;6.98;76.92;96380.84;29394;218;64009;-61
2023/03/13 00:54:57;;;;;;;0.50;0.50;;;;;;;7.01;76.47;96381.09;29394;203;64009;-61
2023/03/13 00:55:28;;;;;;;0.50;0.50;;;;;;;7.05;76.47;96384.03;29395;202;63009;-62
2023/03/13 00:56:05;;;;;;;0.50;0.50;;;;;;;7.05;76.49;96387.53;29395;196;63004;-63
2023/03/13 00:56:36;;;;;;;0.50;0.50;;;;;;;7.05;76.34;96378.66;29395;202;63015;-61
2023/03/13 00:57:08;;;;;;;0.50;0.50;;;;;;;7.03;76.40;96387.03;29395;216;63005;-61
2023/03/13 00:57:39;;;;;;;0.52;0.52;;;;;;;7.01;76.40;96383.00;29395;253;63009;-61
2023/03/13 00:58:10;;;;;;;0.50;0.50;;;;;;;7.00;76.38;96382.19;29395;272;63005;-62
2023/03/13 00:58:44;;;;;;;1.45;1.45;;;;;;;7.00;76.53;96384.88;29394;222;64013;-61
2023/03/13 00:59:16;;;;;;;0.50;0.50;;;;;;;7.02;76.60;96376.50;29395;208;63005;-60
2023/03/13 00:59:47;;;;;;;0.50;0.50;;;;;;;7.01;76.68;96375.72;29394;199;64013;-62
2023/03/13 01:00:19;;;;;;;0.50;0.50;;;;;;;7.02;76.47;96373.81;29395;216;63005;-63
2023/03/13 01:00:51;;;;;;;0.50;0.50;;;;;;;7.03;76.50;96378.13;29395;245;63009;-61
2023/03/13 01:01:29;;;;;;;0.50;0.50;;;;;;;7.02;76.60;96373.81;29395;202;63004;-63
2023/03/13 01:02:03;;;;;;;0.50;0.50;;;;;;;7.02;76.31;96376.50;29395;212;63009;-60
2023/03/13 01:02:34;;;;;;;0.50;0.50;;;;;;;7.06;76.15;96378.38;29395;282;63004;-61
2023/03/13 01:03:08;;;;;;;0.50;0.50;;;;;;;7.12;76.24;96373.75;29395;281;63009;-61
2023/03/13 01:03:42;;;;;;;0.50;0.50;;;;;;;7.13;76.06;96367.25;29395;274;63010;-60
2023/03/13 01:04:13;;;;;;;0.50;0.50;;;;;;;7.17;75.96;96373.69;29394;253;64013;-62
2023/03/13 01:04:45;;;;;;;0.50;0.50;;;;;;;7.16;75.82;96366.69;29395;203;63005;-63
2023/03/13 01:05:20;;;;;;;1.33;1.33;;;;;;;7.17;75.73;96372.87;29394;204;64026;-65
2023/03/13 01:05:58;;;;;;;0.50;0.50;;;;;;;7.19;75.38;96363.44;29395;219;63005;-66
2023/03/13 01:06:33;;;;;;;1.40;1.40;;;;;;;7.25;75.59;96366.88;29395;214;63009;-63
2023/03/13 01:07:04;;;;;;;0.50;0.50;;;;;;;7.26;75.28;96355.81;29395;198;63005;-61
2023/03/13 01:07:37;;;;;;;0.50;0.50;;;;;;;7.26;75.07;96363.09;29394;210;64013;-71
2023/03/13 01:08:09;;;;;;;0.60;0.60;;;;;;;7.25;75.33;96364.19;29395;297;63005;-70
2023/03/13 01:08:40;;;;;;;0.50;0.50;;;;;;;7.26;75.03;96355.81;29395;254;63009;-63
2023/03/13 01:09:14;;;;;;;0.70;0.70;;;;;;;7.30;75.02;96361.41;29395;275;63004;-58
2023/03/13 01:09:45;;;;;;;0.50;0.50;;;;;;;7.35;74.83;96359.47;29395;204;63009;-59
2023/03/13 01:10:19;;;;;;;0.50;0.50;;;;;;;7.34;74.76;96357.87;29395;342;63004;-61
2023/03/13 01:10:57;;;;;;;0.50;0.50;;;;;;;7.37;74.49;96356.50;29395;279;63009;-61
2023/03/13 01:11:31;;;;;;;0.50;0.50;;;;;;;7.39;74.36;96349.72;29394;212;64008;-65
2023/03/13 01:12:06;;;;;;;0.50;0.50;;;;;;;7.43;74.37;96349.16;29395;275;63018;-62
2023/03/13 01:12:38;;;;;;;0.50;0.50;;;;;;;7.44;74.23;96345.38;29395;257;63005;-70
2023/03/13 01:13:09;;;;;;;0.50;0.50;;;;;;;7.42;74.35;96342.94;29395;205;63009;-61
2023/03/13 01:13:41;;;;;;;0.60;0.60;;;;;;;7.42;74.05;96347.56;29395;198;63012;-61
2023/03/13 01:14:15;;;;;;;0.50;0.50;;;;;;;7.39;74.40;96349.72;29395;197;63009;-64
2023/03/13 01:14:49;;;;;;;0.50;0.50;;;;;;;7.35;74.16;96345.97;29395;197;63005;-63
2023/03/13 01:15:20;;;;;;;0.60;0.60;;;;;;;7.36;74.49;96334.09;29395;206;63009;-62
2023/03/13 01:15:55;;;;;;;0.70;0.70;;;;;;;7.39;74.29;96338.94;29394;202;64009;-62
2023/03/13 01:16:29;;;;;;;0.60;0.60;;;;;;;7.40;74.39;96337.84;29395;248;63009;-64
2023/03/13 01:17:00;;;;;;;0.50;0.50;;;;;;;7.40;74.09;96335.13;29395;227;63004;-61
2023/03/13 01:17:32;;;;;;;0.50;0.50;;;;;;;7.39;74.02;96344.31;29395;232;63009;-63
2023/03/13 01:18:03;;;;;;;0.60;0.60;;;;;;;7.41;74.10;96338.66;29395;237;63004;-63
2023/03/13 01:18:37;;;;;;;0.60;0.60;;;;;;;7.43;74.24;96338.34;29395;203;63008;-62
2023/03/13 01:19:13;;;;;;;0.50;0.50;;;;;;;7.36;74.08;96334.09;29395;221;63004;-64
2023/03/13 01:19:45;;;;;;;0.60;0.60;;;;;;;7.35;74.35;96337.88;29394;196;64014;-61
2023/03/13 01:20:17;;;;;;;0.50;0.50;;;;;;;7.33;74.24;96329.28;29395;197;63005;-62
2023/03/13 01:20:48;;;;;;;0.50;0.50;;;;;;;7.30;74.39;96337.94;29395;227;63024;-71
2023/03/13 01:21:21;;;;;;;0.57;0.57;;;;;;;7.26;74.92;96334.22;29395;238;63005;-62
2023/03/13 01:21:56;;;;;;;0.50;0.50;;;;;;;7.26;74.78;96334.22;29394;290;64013;-63
2023/03/13 01:22:27;;;;;;;0.50;0.50;;;;;;;7.27;74.90;96327.75;29394;298;64009;-60
2023/03/13 01:22:58;;;;;;;0.50;0.50;;;;;;;7.29;74.99;96322.84;29395;197;63025;-62
2023/03/13 01:23:30;;;;;;;0.50;0.50;;;;;;;7.27;74.57;96319.63;29394;248;64004;-66
2023/03/13 01:24:02;;;;;;;0.50;0.50;;;;;;;7.25;74.87;96316.44;29395;198;63009;-62
2023/03/13 01:24:33;;;;;;;0.60;0.60;;;;;;;7.23;74.91;96334.78;29395;253;63004;-63
2023/03/13 01:25:05;;;;;;;0.60;0.60;;;;;;;7.23;74.99;96326.69;29395;295;63020;-61
2023/03/13 01:25:38;;;;;;;0.60;0.60;;;;;;;7.22;74.88;96326.97;29395;259;63004;-61
2023/03/13 01:26:10;;;;;;;0.60;0.60;;;;;;;7.18;74.70;96331.34;29395;213;63008;-71
2023/03/13 01:26:41;;;;;;;0.70;0.70;;;;;;;7.14;75.04;96323.00;29395;220;63005;-65
2023/03/13 01:27:13;;;;;;;0.52;0.52;;;;;;;7.10;75.31;96329.25;29395;198;63009;-61
2023/03/13 01:27:44;;;;;;;1.35;1.35;;;;;;;7.08;75.33;96326.84;29394;208;64009;-63
2023/03/13 01:28:15;;;;;;;0.70;0.70;;;;;;;7.06;75.63;96326.31;29395;199;63009;-66
2023/03/13 01:28:47;;;;;;;0.50;0.50;;;;;;;7.10;75.52;96327.34;29395;282;63005;-68
2023/03/13 01:29:18;;;;;;;0.50;0.50;;;;;;;7.09;75.40;96322.25;29395;223;63009;-61
2023/03/13 01:29:50;;;;;;;1.05;0.95;;;;;;;7.08;75.12;96324.12;29394;231;64009;-66
2023/03/13 01:30:21;;;;;;;0.50;0.50;;;;;;;7.08;75.61;96324.12;29395;235;63009;-61
2023/03/13 01:30:52;;;;;;;0.50;0.50;;;;;;;7.06;75.52;96323.59;29395;254;63004;-68
2023/03/13 01:31:30;;;;;;;0.50;0.50;;;;;;;7.09;75.74;96324.94;29395;221;63009;-62
2023/03/13 01:32:01;;;;;;;0.60;0.60;;;;;;;7.09;75.55;96323.03;29395;289;63009;-62
2023/03/13 01:32:33;;;;;;;0.50;0.50;;;;;;;7.07;75.56;96314.44;29394;227;64013;-63
2023/03/13 01:33:04;;;;;;;0.50;0.50;;;;;;;7.05;75.35;96322.00;29395;204;63004;-60
2023/03/13 01:33:36;;;;;;;0.50;0.50;;;;;;;7.06;75.52;96318.22;29395;233;63008;-61
2023/03/13 01:34:09;;;;;;;0.60;0.60;;;;;;;7.06;75.53;96320.91;29395;255;63004;-61
2023/03/13 01:34:41;;;;;;;0.50;0.50;;;;;;;7.03;75.71;96319.59;29395;275;63009;-70
2023/03/13 01:35:14;;;;;;;0.60;0.60;;;;;;;7.09;75.47;96317.66;29395;264;63005;-68
2023/03/13 01:35:48;;;;;;;0.60;0.60;;;;;;;7.09;75.58;96317.66;29395;212;63009;-69
2023/03/13 01:36:19;;;;;;;0.50;0.50;;;;;;;7.13;75.45;96316.00;29394;210;64009;-62
2023/03/13 01:36:51;;;;;;;0.60;0.60;;;;;;;7.13;75.40;96318.69;29395;202;63009;-62
2023/03/13 01:37:22;;;;;;;0.60;0.60;;;;;;;7.15;75.22;96313.81;29394;297;64009;-61
2023/03/13 01:37:54;;;;;;;0.50;0.50;;;;;;;7.11;75.07;96318.16;29395;241;63009;-62
2023/03/13 01:38:26;;;;;;;0.60;0.60;;;;;;;7.06;75.49;96319.03;29395;221;63008;-62
2023/03/13 01:38:59;;;;;;;0.50;0.50;;;;;;;7.05;75.56;96319.31;29395;198;63009;-61
2023/03/13 01:39:31;;;;;;;0.50;0.50;;;;;;;7.02;75.70;96311.78;29395;197;63004;-62
2023/03/13 01:40:02;;;;;;;0.80;0.80;;;;;;;7.07;75.48;96314.44;29395;223;63009;-60
2023/03/13 01:40:56;;;;;;;0.88;0.88;;;;;;;7.15;75.08;96311.13;29395;209;63004;-60
2023/03/13 01:41:30;;;;;;;0.77;0.77;;;;;;;7.19;74.85;96306.75;29394;197;64014;-68
2023/03/13 01:42:03;;;;;;;0.50;0.50;;;;;;;7.19;74.82;96295.97;29395;273;63005;-62
2023/03/13 01:42:49;;;;;;;0.60;0.60;;;;;;;7.16;75.06;96301.94;29395;252;63009;-61
2023/03/13 01:43:26;;;;;;;2.58;2.47;;;;;;;7.21;74.80;96288.41;29395;197;63005;-70
2023/03/13 01:43:58;;;;;;;0.60;0.60;;;;;;;7.19;74.75;96293.28;29395;243;63009;-59
2023/03/13 01:44:29;;;;;;;0.70;0.70;;;;;;;7.20;74.84;96297.59;29395;257;63005;-61
2023/03/13 01:45:00;;;;;;;0.75;0.75;;;;;;;7.25;74.53;96288.63;29395;203;63009;-61
2023/03/13 01:46:12;;;;;;;0.50;0.50;;;;;;;7.25;74.53;96284.03;29395;207;63005;-60
2023/03/13 01:46:43;;;;;;;0.50;0.50;;;;;;;7.26;74.46;96290.25;29416;227;64009;-61
2023/03/13 01:47:15;;;;;;;0.50;0.50;;;;;;;7.22;74.42;96287.31;29371;204;64013;-68
2023/03/13 01:47:46;;;;;;;0.50;0.50;;;;;;;7.18;74.79;96288.97;29395;251;63007;-62
2023/03/13 01:48:30;;;;;;;0.60;0.60;;;;;;;7.21;74.73;96279.50;29395;234;63008;-66
2023/03/13 01:49:12;;;;;;;0.60;0.60;;;;;;;7.24;74.26;96287.03;29395;206;63005;-64
2023/03/13 01:49:45;;;;;;;1.45;1.45;;;;;;;7.25;74.56;96280.53;29395;219;63009;-61
2023/03/13 01:50:16;;;;;;;0.57;0.57;;;;;;;7.20;74.46;96281.41;29395;347;63005;-70
2023/03/13 01:50:48;;;;;;;0.50;0.50;;;;;;;7.22;74.67;96284.59;29395;206;63009;-63
2023/03/13 01:51:36;;;;;;;0.60;0.60;;;;;;;7.17;74.81;96284.66;29395;224;63005;-63
2023/03/13 01:52:30;;;;;;;0.50;0.50;;;;;;;7.16;74.67;96279.56;29394;263;64013;-62
2023/03/13 01:53:02;;;;;;;0.60;0.60;;;;;;;7.16;74.89;96282.25;29395;199;63005;-69
2023/03/13 01:53:36;;;;;;;0.60;0.60;;;;;;;7.16;74.98;96279.56;29394;261;64013;-62
2023/03/13 01:54:18;;;;;;;0.60;0.60;;;;;;;7.14;74.79;96271.75;29395;219;63004;-62
2023/03/13 01:55:10;;;;;;;0.60;0.60;;;;;;;7.17;74.71;96271.16;29395;197;63009;-63
2023/03/13 01:55:41;;;;;;;;;;;;;;;7.21;74.72;96274.91;29996;983;6000;-63
2023/03/13 01:56:26;;;;;;;0.60;0.60;;;;;;;7.21;74.27;96272.22;29422;228;63004;-66
2023/03/13 01:57:03;;;;;;;0.50;0.50;;;;;;;7.24;74.21;96260.03;29394;283;64003;-61
2023/03/13 01:57:42;;;;;;;0.50;0.50;;;;;;;7.23;74.33;96259.25;29395;207;63005;-66
2023/03/13 01:58:14;;;;;;;0.60;0.60;;;;;;;7.21;74.44;96261.41;29395;203;63009;-62
2023/03/13 01:58:48;;;;;;;0.50;0.50;;;;;;;7.18;74.66;96253.91;29395;265;63009;-61
2023/03/13 01:59:43;;;;;;;0.50;0.50;;;;;;;7.18;74.54;96262.00;29394;215;64013;-62
2023/03/13 02:00:19;;;;;;;0.50;0.50;;;;;;;7.21;74.59;96256.03;29395;220;63005;-62
2023/03/13 02:00:50;;;;;;;0.60;0.60;;;;;;;7.25;74.50;96258.94;29395;225;63009;-61
2023/03/13 02:01:23;;;;;;;0.73;0.73;;;;;;;7.25;74.32;96256.25;29395;238;63004;-61
2023/03/13 02:01:59;;;;;;;0.50;0.50;;;;;;;7.21;74.21;96250.63;29395;229;63009;-82
2023/03/13 02:02:30;;;;;;;0.60;0.60;;;;;;;7.18;74.41;96251.19;29395;231;63004;-71
2023/03/13 02:03:10;;;;;;;0.40;0.40;;;;;;;7.16;74.53;96256.06;29395;349;63009;-60
2023/03/13 02:03:42;;;;;;;0.50;0.50;;;;;;;7.15;74.48;96251.75;29395;204;63004;-60
2023/03/13 02:04:15;;;;;;;0.50;0.50;;;;;;;7.18;74.49;96250.37;29395;218;63009;-62
2023/03/13 02:04:53;;;;;;;0.70;0.70;;;;;;;7.15;74.55;96250.97;29394;225;64009;-60
2023/03/13 02:05:28;;;;;;;0.50;0.50;;;;;;;7.18;74.84;96245.78;29395;224;63009;-62
2023/03/13 02:06:00;;;;;;;0.50;0.50;;;;;;;7.18;74.61;96245.00;29395;212;63010;-62
2023/03/13 02:06:48;;;;;;;0.50;0.50;;;;;;;7.14;74.81;96244.75;29395;200;63024;-61
2023/03/13 02:07:26;;;;;;;0.50;0.50;;;;;;;7.18;74.37;96237.72;29394;263;64009;-68
2023/03/13 02:08:08;;;;;;;0.60;0.60;;;;;;;7.19;74.52;96242.00;29394;208;64013;-69
2023/03/13 02:08:53;;;;;;;;;;;;;;;7.16;74.36;96247.97;29996;983;5990;-63
2023/03/13 02:09:29;;;;;;;0.60;0.60;;;;;;;7.15;74.55;96243.66;29400;266;63004;-63
2023/03/13 02:10:00;;;;;;;0.50;0.50;;;;;;;7.14;74.57;96242.06;29395;258;63019;-62
2023/03/13 02:10:37;;;;;;;0.50;0.50;;;;;;;7.12;74.66;96249.63;29394;208;64009;-62
2023/03/13 02:11:41;;;;;;;0.60;0.60;;;;;;;7.13;74.97;96243.16;29395;290;63008;-63
2023/03/13 02:12:18;;;;;;;0.55;0.55;;;;;;;7.11;75.04;96241.81;29395;215;63005;-68
2023/03/13 02:12:51;;;;;;;1.08;1.05;;;;;;;7.18;74.51;96240.41;29395;261;63009;-62
2023/03/13 02:13:22;;;;;;;0.50;0.50;;;;;;;7.20;74.79;96232.81;29395;226;63005;-61
2023/03/13 02:13:56;;;;;;;0.50;0.50;;;;;;;7.17;74.71;96233.41;29394;212;64013;-62
2023/03/13 02:14:31;;;;;;;0.62;0.62;;;;;;;7.17;74.77;96238.78;29394;228;64009;-60
2023/03/13 02:15:14;;;;;;;0.60;0.60;;;;;;;7.15;74.84;96232.88;29395;220;63017;-69
2023/03/13 02:15:46;;;;;;;0.60;0.60;;;;;;;7.22;74.56;96236.03;29395;218;63005;-62
2023/03/13 02:16:19;;;;;;;0.50;0.50;;;;;;;7.20;74.35;96238.22;29395;250;63009;-61
2023/03/13 02:16:52;;;;;;;0.60;0.60;;;;;;;7.19;74.40;96236.63;29395;271;63004;-70
2023/03/13 02:17:24;;;;;;;0.60;0.60;;;;;;;7.18;74.65;96229.59;29395;216;63009;-61
2023/03/13 02:17:55;;;;;;;0.50;0.50;;;;;;;7.15;74.98;96232.88;29394;212;64009;-70
2023/03/13 02:18:28;;;;;;;0.50;0.50;;;;;;;7.18;74.89;96231.50;29395;220;63008;-59
2023/03/13 02:19:02;;;;;;;0.57;0.57;;;;;;;7.21;74.95;96222.84;29394;220;64008;-64
2023/03/13 02:19:51;;;;;;;0.50;0.50;;;;;;;7.22;74.88;96236.03;29395;260;63009;-64
2023/03/13 02:20:24;;;;;;;0.50;0.50;;;;;;;7.20;74.81;96232.81;29395;199;63005;-60
2023/03/13 02:21:05;;;;;;;0.50;0.50;;;;;;;7.17;74.79;96238.78;29395;218;63026;-61
2023/03/13 02:21:49;;;;;;;0.60;0.60;;;;;;;7.13;75.34;96237.75;29395;267;63005;-60
2023/03/13 02:23:00;;;;;;;0.50;0.50;;;;;;;7.09;75.47;96242.13;29395;200;63009;-61
2023/03/13 02:23:44;;;;;;;0.60;0.60;;;;;;;7.08;75.27;96240.50;29394;221;64009;-61
2023/03/13 02:24:30;;;;;;;0.60;0.60;;;;;;;7.09;75.56;96238.59;29395;198;63009;-63
2023/03/13 02:25:43;;;;;;;0.50;0.50;;;;;;;7.09;75.72;96244.00;29395;207;63004;-60
2023/03/13 02:26:15;;;;;;;0.60;0.60;;;;;;;7.06;75.75;96239.97;29394;224;64013;-60
2023/03/13 02:26:47;;;;;;;0.80;0.80;;;;;;;7.08;75.49;96243.19;29395;249;63012;-60
2023/03/13 02:27:18;;;;;;;0.50;0.50;;;;;;;7.10;75.62;96246.41;29395;300;63009;-60
2023/03/13 02:28:04;;;;;;;0.60;0.60;;;;;;;7.09;75.65;96235.91;29395;206;63005;-61
2023/03/13 02:28:38;;;;;;;0.60;0.60;;;;;;;7.06;75.55;96234.59;29394;242;64013;-61
2023/03/13 02:29:17;;;;;;;0.50;0.50;;;;;;;7.06;75.77;96232.69;29395;226;63018;-63
2023/03/13 02:29:50;;;;;;;0.50;0.50;;;;;;;7.06;75.81;96242.69;29395;204;63009;-60
2023/03/13 02:30:22;;;;;;;0.50;0.50;;;;;;;7.04;75.90;96234.06;29395;197;63004;-61
2023/03/13 02:30:58;;;;;;;0.60;0.60;;;;;;;7.09;75.67;96236.72;29395;202;63009;-61
2023/03/13 02:31:30;;;;;;;0.60;0.60;;;;;;;7.11;75.42;96237.25;29395;243;63009;-60
2023/03/13 02:32:01;;;;;;;0.57;0.57;;;;;;;7.12;75.43;96235.34;29395;197;63023;-60
2023/03/13 02:32:33;;;;;;;0.50;0.50;;;;;;;7.21;75.20;96239.84;29395;234;63004;-60
2023/03/13 02:33:04;;;;;;;0.50;0.50;;;;;;;7.24;74.93;96233.88;29395;205;63008;-61
2023/03/13 02:33:41;;;;;;;0.50;0.50;;;;;;;7.27;74.94;96236.00;29394;215;64009;-61
2023/03/13 02:34:16;;;;;;;0.50;0.50;;;;;;;7.35;74.65;96235.34;29394;241;64014;-61
2023/03/13 02:34:52;;;;;;;0.50;0.50;;;;;;;7.38;74.54;96233.97;29395;289;63005;-62
2023/03/13 02:35:23;;;;;;;0.50;0.50;;;;;;;7.33;74.55;96237.50;29395;218;63009;-61
2023/03/13 02:35:55;;;;;;;0.50;0.50;;;;;;;7.30;74.69;96234.59;29394;202;64009;-61
2023/03/13 02:36:29;;;;;;;0.50;0.50;;;;;;;7.37;74.33;96233.16;29395;231;63009;-63
2023/03/13 02:37:04;;;;;;;0.60;0.60;;;;;;;7.39;74.35;96225.56;29395;283;63011;-62
2023/03/13 02:37:38;;;;;;;0.50;0.50;;;;;;;7.42;74.09;96235.00;29395;207;63009;-62
2023/03/13 02:38:13;;;;;;;0.60;0.60;;;;;;;7.41;74.24;96227.97;29394;203;64009;-63
2023/03/13 02:38:58;;;;;;;0.60;0.60;;;;;;;7.37;74.44;96227.75;29395;238;63009;-61
2023/03/13 02:39:31;;;;;;;0.50;0.50;;;;;;;7.43;74.55;96227.69;29395;222;63004;-62
2023/03/13 02:40:10;;;;;;;0.50;0.50;;;;;;;7.46;74.22;96225.22;29395;224;63009;-58
2023/03/13 02:40:45;;;;;;;0.52;0.52;;;;;;;7.48;74.23;96223.03;29394;198;64008;-66
2023/03/13 02:41:19;;;;;;;0.50;0.50;;;;;;;7.52;73.86;96223.28;29395;232;63009;-60
2023/03/13 02:41:52;;;;;;;0.50;0.50;;;;;;;7.55;73.82;96217.28;29395;260;63005;-61
2023/03/13 02:42:24;;;;;;;0.60;0.60;;;;;;;7.59;73.76;96223.72;29394;254;64009;-63
2023/03/13 02:42:59;;;;;;;0.50;0.50;;;;;;;7.59;73.87;96212.94;29395;242;63005;-63
2023/03/13 02:43:36;;;;;;;0.60;0.60;;;;;;;7.56;73.96;96210.81;29395;262;63009;-61
2023/03/13 02:44:09;;;;;;;0.50;0.50;;;;;;;7.59;74.03;96207.53;29395;197;63005;-67
2023/03/13 02:44:41;;;;;;;0.50;0.50;;;;;;;7.62;73.73;96212.34;29395;256;63009;-60
2023/03/13 02:45:14;;;;;;;0.50;0.50;;;;;;;7.62;73.95;96206.94;29395;258;63004;-62
2023/03/13 02:46:20;;;;;;;0.50;0.50;;;;;;;7.58;74.16;96211.31;29394;228;64013;-60
2023/03/13 02:46:52;;;;;;;0.50;0.50;;;;;;;7.55;74.06;96201.09;29395;219;63004;-60